createdAt,value
2022-08-26T00:01:55.983Z,28.80
2022-08-26T00:04:25.583Z,28.70
2022-08-26T00:06:54.515Z,28.70
2022-08-26T00:09:22.017Z,28.70
2022-08-26T00:11:49.342Z,28.70
2022-08-26T00:14:18.166Z,28.70
2022-08-26T00:16:47.757Z,28.60
2022-08-26T00:19:20.364Z,28.60
2022-08-26T00:21:49.657Z,28.60
2022-08-26T00:24:19.243Z,28.60
2022-08-26T00:26:49.774Z,28.60
2022-08-26T00:29:17.413Z,28.60
2022-08-26T00:31:46.504Z,28.60
2022-08-26T00:34:15.294Z,28.50
2022-08-26T00:36:43.588Z,28.50
2022-08-26T00:39:11.354Z,28.50
2022-08-26T00:41:40.599Z,28.50
2022-08-26T00:44:10.358Z,28.50
2022-08-26T00:46:46.780Z,28.50
2022-08-26T00:49:19.769Z,28.50
2022-08-26T00:51:53.505Z,28.50
2022-08-26T00:54:24.094Z,28.40
2022-08-26T00:57:00.837Z,28.40
2022-08-26T00:59:32.612Z,28.40
2022-08-26T01:02:03.663Z,28.40
2022-08-26T01:04:33.367Z,28.40
2022-08-26T01:07:00.940Z,28.40
2022-08-26T01:09:28.344Z,28.40
2022-08-26T01:11:59.912Z,28.40
2022-08-26T01:14:31.227Z,28.30
2022-08-26T01:16:59.023Z,28.30
2022-08-26T01:19:32.919Z,28.30
2022-08-26T01:22:06.192Z,28.30
2022-08-26T01:24:33.856Z,28.30
2022-08-26T01:27:05.172Z,28.30
2022-08-26T01:29:36.103Z,28.30
2022-08-26T01:32:05.098Z,28.30
2022-08-26T01:34:37.582Z,28.30
2022-08-26T01:37:40.422Z,28.30
2022-08-26T01:40:11.263Z,28.20
2022-08-26T01:42:40.661Z,28.20
2022-08-26T01:45:13.608Z,28.20
2022-08-26T01:47:43.050Z,28.20
2022-08-26T01:50:17.994Z,28.20
2022-08-26T01:53:00.947Z,28.20
2022-08-26T01:55:32.775Z,28.20
2022-08-26T01:58:05.266Z,28.20
2022-08-26T02:00:34.310Z,28.20
2022-08-26T02:03:17.450Z,28.20
2022-08-26T02:05:57.901Z,28.10
2022-08-26T02:08:36.355Z,28.10
2022-08-26T02:11:03.897Z,28.10
2022-08-26T02:13:32.871Z,28.10
2022-08-26T02:16:03.788Z,28.10
2022-08-26T02:18:35.035Z,28.10
2022-08-26T02:21:02.801Z,28.10
2022-08-26T02:23:34.007Z,28.10
2022-08-26T02:26:04.046Z,28.10
2022-08-26T02:28:35.839Z,28.10
2022-08-26T02:31:03.475Z,28.00
2022-08-26T02:33:34.747Z,28.00
2022-08-26T02:36:03.032Z,28.00
2022-08-26T02:38:33.682Z,28.00
2022-08-26T02:41:00.734Z,28.00
2022-08-26T02:43:31.748Z,28.00
2022-08-26T02:46:02.205Z,27.90
2022-08-26T02:48:30.732Z,27.90
2022-08-26T02:51:00.588Z,27.90
2022-08-26T02:53:28.827Z,27.90
2022-08-26T02:55:59.845Z,27.90
2022-08-26T02:58:30.108Z,27.90
2022-08-26T03:00:57.261Z,27.80
2022-08-26T03:03:26.319Z,27.80
2022-08-26T03:05:54.879Z,27.80
2022-08-26T03:08:22.284Z,27.80
2022-08-26T03:10:50.675Z,27.70
2022-08-26T03:13:18.597Z,27.70
2022-08-26T03:15:45.920Z,27.70
2022-08-26T03:18:16.070Z,27.70
2022-08-26T03:20:43.969Z,27.70
2022-08-26T03:23:12.459Z,27.60
2022-08-26T03:25:42.410Z,27.60
2022-08-26T03:28:09.802Z,27.50
2022-08-26T03:30:45.499Z,27.50
2022-08-26T03:33:16.096Z,27.50
2022-08-26T03:35:45.080Z,27.40
2022-08-26T03:38:16.026Z,27.40
2022-08-26T03:40:43.948Z,27.40
2022-08-26T03:43:11.863Z,27.40
2022-08-26T03:45:40.857Z,27.40
2022-08-26T03:48:08.227Z,27.30
2022-08-26T03:50:35.936Z,27.30
2022-08-26T03:53:04.367Z,27.30
2022-08-26T03:55:34.627Z,27.30
2022-08-26T03:58:02.283Z,27.30
2022-08-26T04:00:30.371Z,27.30
2022-08-26T04:02:57.981Z,27.20
2022-08-26T04:05:25.356Z,27.20
2022-08-26T04:07:52.550Z,27.20
2022-08-26T04:10:29.224Z,27.20
2022-08-26T04:13:04.046Z,27.20
2022-08-26T04:15:31.171Z,27.20
2022-08-26T04:17:58.298Z,27.20
2022-08-26T04:20:26.379Z,27.20
2022-08-26T04:22:53.822Z,27.20
2022-08-26T04:25:21.309Z,27.20
2022-08-26T04:27:48.546Z,27.20
2022-08-26T04:30:16.005Z,27.20
2022-08-26T04:32:44.899Z,27.20
2022-08-26T04:35:12.089Z,27.10
2022-08-26T04:37:43.036Z,27.10
2022-08-26T04:40:10.816Z,27.10
2022-08-26T04:42:38.160Z,27.10
2022-08-26T04:45:10.178Z,27.10
2022-08-26T04:47:38.212Z,27.10
2022-08-26T04:50:07.503Z,27.00
2022-08-26T04:52:36.242Z,27.10
2022-08-26T04:55:06.701Z,27.00
2022-08-26T04:57:36.230Z,27.10
2022-08-26T05:00:07.991Z,27.10
2022-08-26T05:02:36.180Z,27.10
2022-08-26T05:05:07.187Z,27.10
2022-08-26T05:07:37.565Z,27.00
2022-08-26T05:10:08.767Z,27.00
2022-08-26T05:12:37.435Z,27.00
2022-08-26T05:15:05.652Z,27.00
2022-08-26T05:17:33.351Z,26.90
2022-08-26T05:20:00.553Z,26.90
2022-08-26T05:22:27.666Z,26.90
2022-08-26T05:24:54.746Z,26.90
2022-08-26T05:27:21.774Z,26.90
2022-08-26T05:29:48.715Z,26.90
2022-08-26T05:32:21.745Z,26.90
2022-08-26T05:34:52.800Z,26.90
2022-08-26T05:37:22.015Z,26.90
2022-08-26T05:39:51.183Z,26.90
2022-08-26T05:42:19.916Z,26.90
2022-08-26T05:44:53.790Z,26.90
2022-08-26T05:47:23.425Z,26.90
2022-08-26T05:49:51.481Z,26.90
2022-08-26T05:52:19.804Z,27.00
2022-08-26T05:54:47.658Z,27.00
2022-08-26T05:57:14.853Z,27.00
2022-08-26T05:59:42.189Z,27.10
2022-08-26T06:02:11.077Z,27.10
2022-08-26T06:04:39.293Z,27.10
2022-08-26T06:07:06.406Z,27.10
2022-08-26T06:09:37.587Z,27.20
2022-08-26T06:12:05.891Z,27.20
2022-08-26T06:14:32.886Z,27.20
2022-08-26T06:17:02.665Z,27.20
2022-08-26T06:19:32.945Z,27.30
2022-08-26T06:22:23.467Z,27.30
2022-08-26T06:25:09.284Z,27.40
2022-08-26T06:27:37.024Z,27.40
2022-08-26T06:30:04.662Z,27.40
2022-08-26T06:32:31.851Z,27.40
2022-08-26T06:34:59.178Z,27.40
2022-08-26T06:37:26.168Z,27.40
2022-08-26T06:39:53.254Z,27.50
2022-08-26T06:42:20.496Z,27.50
2022-08-26T06:44:48.005Z,27.50
2022-08-26T06:47:15.138Z,27.50
2022-08-26T06:49:42.256Z,27.60
2022-08-26T06:52:11.363Z,27.60
2022-08-26T06:54:43.093Z,27.60
2022-08-26T06:57:12.487Z,27.60
2022-08-26T06:59:41.484Z,27.60
2022-08-26T07:02:08.678Z,27.60
2022-08-26T07:04:41.055Z,27.60
2022-08-26T07:07:09.666Z,27.60
2022-08-26T07:09:37.430Z,27.60
2022-08-26T07:12:06.862Z,27.70
2022-08-26T07:14:35.007Z,27.70
2022-08-26T07:17:02.796Z,27.70
2022-08-26T07:19:31.768Z,27.70
2022-08-26T07:22:02.213Z,27.80
2022-08-26T07:24:31.188Z,27.80
2022-08-26T07:27:05.656Z,27.80
2022-08-26T07:29:33.345Z,27.90
2022-08-26T07:32:00.452Z,27.90
2022-08-26T07:34:27.911Z,28.00
2022-08-26T07:36:56.828Z,28.00
2022-08-26T07:39:24.959Z,28.10
2022-08-26T07:41:52.743Z,28.10
2022-08-26T07:44:20.054Z,28.10
2022-08-26T07:46:53.498Z,28.10
2022-08-26T07:49:23.854Z,28.10
2022-08-26T07:51:51.757Z,28.20
2022-08-26T07:54:19.200Z,28.20
2022-08-26T07:56:50.884Z,28.20
2022-08-26T07:59:19.543Z,28.20
2022-08-26T08:01:47.199Z,28.20
2022-08-26T08:04:17.236Z,28.20
2022-08-26T08:06:45.709Z,28.20
2022-08-26T08:09:14.936Z,28.30
2022-08-26T08:11:44.890Z,28.30
2022-08-26T08:14:12.947Z,28.30
2022-08-26T08:16:42.528Z,28.30
2022-08-26T08:19:14.850Z,28.30
2022-08-26T08:21:45.472Z,28.30
2022-08-26T08:24:12.542Z,28.30
2022-08-26T08:26:40.345Z,28.30
2022-08-26T08:29:11.585Z,28.40
2022-08-26T08:31:56.748Z,28.40
2022-08-26T08:34:31.073Z,28.50
2022-08-26T08:36:58.701Z,28.50
2022-08-26T08:39:27.407Z,28.60
2022-08-26T08:42:23.639Z,28.60
2022-08-26T08:44:53.150Z,28.60
2022-08-26T08:47:30.881Z,28.60
2022-08-26T08:50:04.141Z,28.60
2022-08-26T08:52:37.848Z,28.70
2022-08-26T08:55:10.369Z,28.70
2022-08-26T08:57:49.314Z,28.80
2022-08-26T09:00:30.424Z,28.80
2022-08-26T09:03:06.009Z,28.80
2022-08-26T09:05:42.606Z,28.90
2022-08-26T09:08:20.022Z,28.90
2022-08-26T09:10:59.605Z,29.00
2022-08-26T09:13:27.701Z,29.00
2022-08-26T09:16:22.100Z,29.10
2022-08-26T09:19:13.112Z,29.00
2022-08-26T09:21:40.467Z,29.10
2022-08-26T09:24:07.932Z,29.10
2022-08-26T09:26:45.779Z,29.20
2022-08-26T09:29:27.226Z,29.20
2022-08-26T09:32:16.126Z,29.20
2022-08-26T09:34:58.872Z,29.20
2022-08-26T09:37:37.404Z,29.20
2022-08-26T09:40:22.525Z,29.20
2022-08-26T09:43:23.104Z,29.30
2022-08-26T09:46:12.484Z,29.30
2022-08-26T09:48:41.035Z,29.30
2022-08-26T09:51:23.227Z,29.30
2022-08-26T09:53:54.466Z,29.40
2022-08-26T09:56:21.643Z,29.40
2022-08-26T09:58:50.611Z,29.40
2022-08-26T10:01:36.226Z,29.50
2022-08-26T10:04:05.111Z,29.50
2022-08-26T10:06:38.499Z,29.50
2022-08-26T10:09:09.074Z,29.50
2022-08-26T10:11:48.834Z,29.50
2022-08-26T10:14:18.684Z,29.60
2022-08-26T10:16:54.544Z,29.60
2022-08-26T10:19:29.103Z,29.60
2022-08-26T10:22:19.243Z,29.60
2022-08-26T10:24:54.949Z,29.70
2022-08-26T10:27:40.594Z,29.70
2022-08-26T10:30:21.649Z,29.70
2022-08-26T10:32:53.919Z,29.80
2022-08-26T10:35:21.396Z,29.80
2022-08-26T10:37:56.229Z,29.90
2022-08-26T10:40:28.781Z,29.90
2022-08-26T10:43:07.096Z,29.90
2022-08-26T10:45:43.011Z,30.00
2022-08-26T10:48:16.628Z,30.00
2022-08-26T10:50:47.655Z,29.90
2022-08-26T10:53:37.237Z,29.90
2022-08-26T10:56:19.089Z,29.90
2022-08-26T10:58:58.231Z,29.90
2022-08-26T11:01:46.882Z,29.90
2022-08-26T11:04:34.856Z,29.90
2022-08-26T11:07:39.589Z,30.00
2022-08-26T11:10:12.885Z,30.00
2022-08-26T11:12:39.908Z,30.00
2022-08-26T11:15:11.133Z,30.00
2022-08-26T11:17:46.596Z,30.00
2022-08-26T11:20:22.558Z,30.10
2022-08-26T11:22:52.789Z,30.10
2022-08-26T11:25:29.708Z,30.10
2022-08-26T11:27:59.567Z,30.10
2022-08-26T11:30:37.436Z,30.10
2022-08-26T11:33:05.403Z,30.10
2022-08-26T11:35:37.525Z,30.20
2022-08-26T11:38:22.403Z,30.20
2022-08-26T11:41:06.465Z,30.20
2022-08-26T11:43:34.583Z,30.30
2022-08-26T11:46:09.182Z,30.30
2022-08-26T11:48:42.047Z,30.30
2022-08-26T11:51:12.468Z,30.30
2022-08-26T11:53:45.047Z,30.40
2022-08-26T11:56:33.222Z,30.40
2022-08-26T11:59:03.818Z,30.40
2022-08-26T12:01:35.646Z,30.50
2022-08-26T12:04:05.694Z,30.50
2022-08-26T12:06:59.252Z,30.50
2022-08-26T12:09:34.464Z,30.50
2022-08-26T12:12:23.324Z,30.60
2022-08-26T12:15:22.713Z,30.60
2022-08-26T12:17:54.362Z,30.60
2022-08-26T12:20:48.803Z,30.70
2022-08-26T12:23:34.104Z,30.60
2022-08-26T12:26:20.980Z,30.70
2022-08-26T12:28:54.917Z,30.70
2022-08-26T12:31:26.879Z,30.70
2022-08-26T12:33:55.584Z,30.70
2022-08-26T12:36:33.356Z,30.70
2022-08-26T12:39:31.090Z,30.70
2022-08-26T12:42:02.451Z,30.70
2022-08-26T12:44:54.064Z,30.70
2022-08-26T12:47:42.914Z,30.70
2022-08-26T12:50:22.516Z,30.80
2022-08-26T12:52:57.975Z,30.80
2022-08-26T12:55:32.846Z,30.80
2022-08-26T12:58:32.354Z,30.80
2022-08-26T13:01:08.926Z,30.80
2022-08-26T13:03:40.311Z,30.80
2022-08-26T13:06:27.456Z,30.80
2022-08-26T13:09:25.369Z,30.80
2022-08-26T13:11:55.142Z,30.80
2022-08-26T13:14:24.706Z,30.80
2022-08-26T13:16:53.384Z,30.80
2022-08-26T13:19:22.792Z,30.80
2022-08-26T13:21:55.361Z,30.90
2022-08-26T13:24:25.673Z,30.90
2022-08-26T13:26:53.047Z,31.00
2022-08-26T13:29:20.550Z,31.00
2022-08-26T13:31:48.017Z,31.00
2022-08-26T13:34:21.007Z,31.00
2022-08-26T13:36:50.034Z,31.10
2022-08-26T13:39:17.757Z,31.10
2022-08-26T13:41:44.810Z,31.10
2022-08-26T13:44:12.461Z,31.20
2022-08-26T13:46:40.059Z,31.20
2022-08-26T13:49:07.890Z,31.20
2022-08-26T13:51:34.975Z,31.30
2022-08-26T13:54:02.061Z,31.30
2022-08-26T13:56:30.132Z,31.40
2022-08-26T13:58:59.464Z,31.50
2022-08-26T14:01:28.199Z,31.60
2022-08-26T14:03:55.670Z,31.70
2022-08-26T14:06:23.089Z,31.80
2022-08-26T14:08:50.196Z,31.80
2022-08-26T14:11:18.367Z,31.90
2022-08-26T14:13:45.586Z,31.90
2022-08-26T14:16:20.113Z,31.90
2022-08-26T14:18:50.738Z,32.00
2022-08-26T14:21:18.914Z,32.00
2022-08-26T14:23:46.265Z,32.20
2022-08-26T14:26:19.028Z,32.30
2022-08-26T14:28:56.139Z,32.40
2022-08-26T14:31:24.231Z,32.50
2022-08-26T14:33:51.406Z,32.60
2022-08-26T14:36:33.832Z,32.70
2022-08-26T14:39:11.244Z,32.70
2022-08-26T14:41:53.931Z,32.80
2022-08-26T14:44:27.761Z,32.90
2022-08-26T14:46:55.761Z,32.90
2022-08-26T14:49:24.697Z,32.90
2022-08-26T14:51:51.787Z,32.90
2022-08-26T14:54:20.222Z,33.00
2022-08-26T14:56:51.338Z,33.10
2022-08-26T14:59:25.205Z,33.20
2022-08-26T15:01:53.185Z,33.40
2022-08-26T15:04:21.281Z,33.50
2022-08-26T15:06:48.943Z,33.60
2022-08-26T15:09:16.932Z,33.70
2022-08-26T15:11:44.071Z,33.70
2022-08-26T15:14:19.856Z,33.90
2022-08-26T15:16:49.531Z,34.40
2022-08-26T15:19:17.934Z,34.70
2022-08-26T15:21:47.213Z,34.60
2022-08-26T15:24:17.348Z,34.40
2022-08-26T15:26:44.987Z,34.20
2022-08-26T15:29:12.386Z,33.90
2022-08-26T15:31:40.708Z,33.70
2022-08-26T15:34:13.264Z,33.70
2022-08-26T15:36:44.814Z,33.80
2022-08-26T15:39:13.012Z,34.10
2022-08-26T15:41:41.146Z,34.20
2022-08-26T15:44:09.180Z,34.00
2022-08-26T15:46:40.327Z,33.90
2022-08-26T15:49:07.623Z,33.60
2022-08-26T15:51:45.538Z,33.40
2022-08-26T15:54:16.014Z,33.20
2022-08-26T15:56:43.714Z,33.10
2022-08-26T15:59:11.812Z,32.90
2022-08-26T16:01:39.824Z,32.80
2022-08-26T16:04:07.562Z,32.70
2022-08-26T16:06:37.143Z,32.60
2022-08-26T16:09:05.021Z,32.40
2022-08-26T16:11:32.991Z,32.30
2022-08-26T16:14:00.089Z,32.20
2022-08-26T16:16:27.227Z,32.20
2022-08-26T16:18:55.108Z,32.20
2022-08-26T16:21:24.983Z,32.20
2022-08-26T16:23:52.395Z,32.20
2022-08-26T16:26:24.239Z,32.20
2022-08-26T16:28:51.606Z,32.30
2022-08-26T16:31:18.905Z,32.30
2022-08-26T16:33:46.345Z,32.30
2022-08-26T16:36:14.337Z,32.30
2022-08-26T16:38:42.199Z,32.30
2022-08-26T16:41:09.515Z,32.20
2022-08-26T16:43:36.774Z,32.00
2022-08-26T16:46:07.024Z,32.00
2022-08-26T16:48:34.676Z,31.80
2022-08-26T16:51:01.775Z,31.60
2022-08-26T16:53:29.021Z,31.50
2022-08-26T16:55:56.133Z,31.40
2022-08-26T16:58:23.211Z,31.30
2022-08-26T17:00:50.485Z,31.30
2022-08-26T17:03:18.187Z,31.20
2022-08-26T17:05:45.266Z,31.20
2022-08-26T17:08:24.427Z,31.20
2022-08-26T17:10:56.875Z,31.20
2022-08-26T17:13:34.721Z,31.10
2022-08-26T17:16:04.853Z,31.10
2022-08-26T17:18:32.877Z,31.10
2022-08-26T17:21:06.702Z,31.00
2022-08-26T17:23:34.409Z,31.00
2022-08-26T17:26:02.593Z,31.00
2022-08-26T17:28:29.887Z,30.90
2022-08-26T17:30:58.470Z,30.80
2022-08-26T17:33:26.619Z,30.70
2022-08-26T17:35:54.906Z,30.60
2022-08-26T17:38:22.276Z,30.60
2022-08-26T17:40:50.235Z,30.50
2022-08-26T17:43:18.400Z,30.40
2022-08-26T17:45:45.681Z,30.40
2022-08-26T17:48:12.865Z,30.40
2022-08-26T17:50:41.335Z,30.30
2022-08-26T17:53:09.936Z,30.30
2022-08-26T17:55:46.704Z,30.30
2022-08-26T17:58:14.996Z,30.30
2022-08-26T18:00:47.406Z,30.30
2022-08-26T18:03:14.887Z,30.30
2022-08-26T18:05:42.634Z,30.30
2022-08-26T18:08:10.130Z,30.20
2022-08-26T18:10:37.200Z,30.20
2022-08-26T18:13:07.148Z,30.10
2022-08-26T18:15:34.248Z,30.10
2022-08-26T18:18:01.300Z,30.10
2022-08-26T18:20:28.319Z,30.00
2022-08-26T18:22:55.420Z,30.00
2022-08-26T18:25:22.736Z,30.10
2022-08-26T18:27:49.844Z,30.00
2022-08-26T18:30:20.766Z,30.00
2022-08-26T18:32:49.480Z,30.00
2022-08-26T18:35:16.831Z,30.00
2022-08-26T18:37:44.531Z,30.00
2022-08-26T18:40:16.612Z,29.90
2022-08-26T18:42:43.980Z,29.90
2022-08-26T18:45:16.062Z,29.90
2022-08-26T18:47:43.937Z,29.90
2022-08-26T18:50:14.017Z,29.90
2022-08-26T18:52:41.148Z,29.90
2022-08-26T18:55:08.553Z,29.90
2022-08-26T18:57:36.017Z,29.90
2022-08-26T19:00:06.697Z,29.80
2022-08-26T19:02:34.482Z,29.80
2022-08-26T19:05:01.793Z,29.80
2022-08-26T19:07:28.854Z,29.80
2022-08-26T19:09:56.010Z,29.80
2022-08-26T19:12:23.060Z,29.70
2022-08-26T19:14:54.091Z,29.70
2022-08-26T19:17:22.551Z,29.70
2022-08-26T19:19:49.885Z,29.70
2022-08-26T19:22:17.140Z,29.70
2022-08-26T19:24:44.185Z,29.70
2022-08-26T19:27:14.787Z,29.70
2022-08-26T19:29:42.172Z,29.60
2022-08-26T19:32:09.155Z,29.70
2022-08-26T19:34:36.410Z,29.60
2022-08-26T19:37:03.550Z,29.60
2022-08-26T19:39:30.905Z,29.60
2022-08-26T19:41:59.078Z,29.60
2022-08-26T19:44:44.962Z,29.60
2022-08-26T19:47:13.046Z,29.60
2022-08-26T19:49:40.080Z,29.60
2022-08-26T19:52:07.587Z,29.60
2022-08-26T19:54:36.135Z,29.60
2022-08-26T19:57:04.259Z,29.50
2022-08-26T19:59:33.060Z,29.50
2022-08-26T20:02:01.340Z,29.60
2022-08-26T20:04:30.745Z,29.50
2022-08-26T20:07:00.465Z,29.50
2022-08-26T20:09:29.636Z,29.50
2022-08-26T20:11:57.340Z,29.50
2022-08-26T20:14:25.813Z,29.50
2022-08-26T20:16:53.388Z,29.40
2022-08-26T20:19:39.005Z,29.50
2022-08-26T20:22:06.445Z,29.40
2022-08-26T20:24:35.611Z,29.40
2022-08-26T20:27:07.663Z,29.40
2022-08-26T20:29:36.148Z,29.40
2022-08-26T20:32:06.189Z,29.40
2022-08-26T20:34:34.120Z,29.40
2022-08-26T20:37:01.718Z,29.30
2022-08-26T20:39:29.767Z,29.40
2022-08-26T20:41:58.143Z,29.30
2022-08-26T20:44:25.685Z,29.30
2022-08-26T20:46:53.159Z,29.30
2022-08-26T20:49:20.349Z,29.30
2022-08-26T20:51:51.494Z,29.30
2022-08-26T20:54:25.037Z,29.30
2022-08-26T20:56:55.641Z,29.30
2022-08-26T20:59:23.386Z,29.30
2022-08-26T21:01:51.005Z,29.30
2022-08-26T21:04:22.750Z,29.30
2022-08-26T21:06:52.851Z,29.30
2022-08-26T21:09:22.273Z,29.30
2022-08-26T21:11:50.215Z,29.30
2022-08-26T21:14:18.987Z,29.30
2022-08-26T21:16:46.794Z,29.30
2022-08-26T21:19:18.082Z,29.30
2022-08-26T21:21:47.024Z,29.30
2022-08-26T21:24:14.383Z,29.30
2022-08-26T21:26:41.635Z,29.20
2022-08-26T21:29:13.551Z,29.20
2022-08-26T21:31:46.215Z,29.20
2022-08-26T21:34:16.841Z,29.10
2022-08-26T21:36:47.308Z,29.10
2022-08-26T21:39:15.134Z,29.10
2022-08-26T21:41:43.654Z,29.10
2022-08-26T21:44:12.177Z,29.20
2022-08-26T21:46:39.926Z,29.20
2022-08-26T21:49:09.523Z,29.20
2022-08-26T21:51:40.214Z,29.20
2022-08-26T21:54:11.101Z,29.10
2022-08-26T21:56:42.321Z,29.20
2022-08-26T21:59:10.269Z,29.20
2022-08-26T22:01:38.126Z,29.10
2022-08-26T22:04:07.725Z,29.10
2022-08-26T22:06:50.872Z,29.10
2022-08-26T22:09:26.423Z,29.10
2022-08-26T22:11:54.258Z,29.10
2022-08-26T22:14:22.395Z,29.10
2022-08-26T22:16:50.218Z,29.00
2022-08-26T22:19:20.046Z,29.00
2022-08-26T22:21:50.135Z,29.10
2022-08-26T22:24:22.756Z,29.10
2022-08-26T22:26:50.351Z,29.00
2022-08-26T22:29:18.669Z,29.00
2022-08-26T22:31:46.425Z,29.10
2022-08-26T22:34:17.405Z,29.00
2022-08-26T22:36:48.547Z,29.00
2022-08-26T22:39:21.304Z,29.00
2022-08-26T22:41:49.069Z,29.00
2022-08-26T22:44:17.228Z,29.00
2022-08-26T22:46:45.159Z,29.00
2022-08-26T22:49:16.336Z,29.00
2022-08-26T22:51:44.951Z,28.90
2022-08-26T22:54:12.720Z,28.90
2022-08-26T22:56:40.446Z,28.90
2022-08-26T22:59:08.364Z,28.90
2022-08-26T23:01:38.351Z,28.90
2022-08-26T23:04:07.131Z,28.90
2022-08-26T23:06:38.479Z,28.80
2022-08-26T23:09:07.263Z,28.80
2022-08-26T23:11:35.894Z,28.80
2022-08-26T23:14:06.556Z,28.80
2022-08-26T23:16:39.735Z,28.80
2022-08-26T23:19:09.166Z,28.80
2022-08-26T23:21:39.477Z,28.80
2022-08-26T23:24:07.735Z,28.80
2022-08-26T23:26:35.718Z,28.70
2022-08-26T23:29:03.615Z,28.70
2022-08-26T23:31:31.234Z,28.70
2022-08-26T23:34:16.865Z,28.70
2022-08-26T23:36:44.709Z,28.70
2022-08-26T23:39:14.660Z,28.60
2022-08-26T23:41:42.666Z,28.60
2022-08-26T23:44:09.786Z,28.60
2022-08-26T23:46:36.863Z,28.60
2022-08-26T23:49:04.603Z,28.60
2022-08-26T23:51:50.750Z,28.60
2022-08-26T23:54:20.856Z,28.50
2022-08-26T23:56:48.288Z,28.50
2022-08-26T23:59:15.655Z,28.60
